createdAt,value
2023-04-16T00:00:46.390Z,7.53
2023-04-16T00:01:47.783Z,8.27
2023-04-16T00:02:49.287Z,8.80
2023-04-16T00:03:50.847Z,8.23
2023-04-16T00:04:52.480Z,9.03
2023-04-16T00:05:55.908Z,8.43
2023-04-16T00:06:57.376Z,8.63
2023-04-16T00:07:58.767Z,9.00
2023-04-16T00:09:00.136Z,9.03
2023-04-16T00:10:02.013Z,8.80
2023-04-16T00:11:03.354Z,9.10
2023-04-16T00:12:04.769Z,8.53
2023-04-16T00:13:06.055Z,7.97
2023-04-16T00:14:07.378Z,8.97
2023-04-16T00:15:08.814Z,9.17
2023-04-16T00:16:10.252Z,8.80
2023-04-16T00:17:11.649Z,9.80
2023-04-16T00:18:13.056Z,9.23
2023-04-16T00:19:14.427Z,9.73
2023-04-16T00:20:15.929Z,8.70
2023-04-16T00:21:17.280Z,9.60
2023-04-16T00:22:18.705Z,10.23
2023-04-16T00:23:20.177Z,10.10
2023-04-16T00:24:21.523Z,9.80
2023-04-16T00:25:22.964Z,10.70
2023-04-16T00:26:24.387Z,10.47
2023-04-16T00:27:26.178Z,10.60
2023-04-16T00:28:27.629Z,10.83
2023-04-16T00:29:30.922Z,11.53
2023-04-16T00:30:32.306Z,11.27
2023-04-16T00:31:33.817Z,11.87
2023-04-16T00:32:35.267Z,11.47
2023-04-16T00:33:36.679Z,12.00
2023-04-16T00:34:38.567Z,12.17
2023-04-16T00:35:40.052Z,11.97
2023-04-16T00:36:41.404Z,11.83
2023-04-16T00:37:42.789Z,12.17
2023-04-16T00:38:44.196Z,12.17
2023-04-16T00:39:45.699Z,12.13
2023-04-16T00:40:47.111Z,12.17
2023-04-16T00:41:49.907Z,11.43
2023-04-16T00:42:51.725Z,13.20
2023-04-16T00:43:53.269Z,12.70
2023-04-16T00:44:54.630Z,12.57
2023-04-16T00:45:56.861Z,13.60
2023-04-16T00:46:58.756Z,12.93
2023-04-16T00:48:00.798Z,13.40
2023-04-16T00:49:02.607Z,13.07
2023-04-16T00:50:04.686Z,13.83
2023-04-16T00:51:06.989Z,14.20
2023-04-16T00:52:08.409Z,13.60
2023-04-16T00:53:09.732Z,13.90
2023-04-16T00:54:11.595Z,14.93
2023-04-16T00:55:13.401Z,14.47
2023-04-16T00:56:14.999Z,14.20
2023-04-16T00:57:16.430Z,15.10
2023-04-16T00:58:18.241Z,14.53
2023-04-16T00:59:19.964Z,15.20
2023-04-16T01:00:21.649Z,14.93
2023-04-16T01:01:23.101Z,14.70
2023-04-16T01:02:24.792Z,14.63
2023-04-16T01:03:34.584Z,14.10
2023-04-16T01:04:36.179Z,14.77
2023-04-16T01:05:37.803Z,13.97
2023-04-16T01:06:39.256Z,14.93
2023-04-16T01:07:40.620Z,15.43
2023-04-16T01:08:42.092Z,14.70
2023-04-16T01:09:43.434Z,15.03
2023-04-16T01:10:45.155Z,15.53
2023-04-16T01:11:46.464Z,14.93
2023-04-16T01:12:47.782Z,15.87
2023-04-16T01:13:49.072Z,15.50
2023-04-16T01:14:51.913Z,15.47
2023-04-16T01:15:53.385Z,16.00
2023-04-16T01:16:54.817Z,14.17
2023-04-16T01:17:56.171Z,14.50
2023-04-16T01:18:57.589Z,14.10
2023-04-16T01:20:00.217Z,15.33
2023-04-16T01:21:01.853Z,15.50
2023-04-16T01:22:03.560Z,14.00
2023-04-16T01:23:04.908Z,15.00
2023-04-16T01:24:06.327Z,15.40
2023-04-16T01:25:07.788Z,14.87
2023-04-16T01:26:09.208Z,14.57
2023-04-16T01:27:10.815Z,14.63
2023-04-16T01:28:12.205Z,15.70
2023-04-16T01:29:13.630Z,15.37
2023-04-16T01:30:15.018Z,15.37
2023-04-16T01:31:26.307Z,15.60
2023-04-16T01:32:38.779Z,15.57
2023-04-16T01:33:40.852Z,16.10
2023-04-16T01:34:42.278Z,15.67
2023-04-16T01:35:45.001Z,14.87
2023-04-16T01:36:46.403Z,15.47
2023-04-16T01:37:49.514Z,14.77
2023-04-16T01:38:50.894Z,15.50
2023-04-16T01:39:52.338Z,14.97
2023-04-16T01:40:57.879Z,15.93
2023-04-16T01:41:59.233Z,15.97
2023-04-16T01:43:00.844Z,15.97
2023-04-16T01:44:02.223Z,15.40
2023-04-16T01:45:03.764Z,15.80
2023-04-16T01:46:12.610Z,16.03
2023-04-16T01:47:14.210Z,15.70
2023-04-16T01:48:15.692Z,14.90
2023-04-16T01:49:17.076Z,14.80
2023-04-16T01:50:19.289Z,15.30
2023-04-16T01:51:21.134Z,15.93
2023-04-16T01:52:22.602Z,15.40
2023-04-16T01:53:24.017Z,14.97
2023-04-16T01:54:26.036Z,15.97
2023-04-16T01:55:27.858Z,16.07
2023-04-16T01:56:29.402Z,15.07
2023-04-16T01:57:30.851Z,15.57
2023-04-16T01:58:33.283Z,15.23
2023-04-16T01:59:35.406Z,16.27
2023-04-16T02:00:37.134Z,15.57
2023-04-16T02:01:38.867Z,15.67
2023-04-16T02:02:40.726Z,16.47
2023-04-16T02:03:42.345Z,17.67
2023-04-16T02:04:45.198Z,17.53
2023-04-16T02:05:47.409Z,16.07
2023-04-16T02:06:48.799Z,16.77
2023-04-16T02:07:50.454Z,16.90
2023-04-16T02:08:51.797Z,15.87
2023-04-16T02:09:53.821Z,17.20
2023-04-16T02:10:56.261Z,16.40
2023-04-16T02:11:58.451Z,16.83
2023-04-16T02:12:59.840Z,16.63
2023-04-16T02:14:01.224Z,17.10
2023-04-16T02:15:02.784Z,17.77
2023-04-16T02:16:04.807Z,18.17
2023-04-16T02:17:28.012Z,18.27
2023-04-16T02:18:41.501Z,18.73
2023-04-16T02:19:43.089Z,18.77
2023-04-16T02:20:46.364Z,18.23
2023-04-16T02:21:48.481Z,19.63
2023-04-16T02:22:49.927Z,18.17
2023-04-16T02:23:54.499Z,19.10
2023-04-16T02:25:01.007Z,19.87
2023-04-16T02:26:03.029Z,19.23
2023-04-16T02:27:04.957Z,19.90
2023-04-16T02:28:06.893Z,18.27
2023-04-16T02:29:14.882Z,18.47
2023-04-16T02:30:19.690Z,18.70
2023-04-16T02:31:22.406Z,19.37
2023-04-16T02:32:24.230Z,19.13
2023-04-16T02:33:26.710Z,19.83
2023-04-16T02:34:34.616Z,19.97
2023-04-16T02:35:36.405Z,19.90
2023-04-16T02:36:37.946Z,19.77
2023-04-16T02:37:40.821Z,19.90
2023-04-16T02:38:42.199Z,19.83
2023-04-16T02:39:44.169Z,19.23
2023-04-16T02:40:45.655Z,18.90
2023-04-16T02:41:47.067Z,18.27
2023-04-16T02:42:48.955Z,18.47
2023-04-16T02:43:50.385Z,19.03
2023-04-16T02:44:51.818Z,19.23
2023-04-16T02:45:53.395Z,19.30
2023-04-16T02:46:54.938Z,18.57
2023-04-16T02:47:56.409Z,19.30
2023-04-16T02:48:57.821Z,19.23
2023-04-16T02:49:59.135Z,19.27
2023-04-16T02:51:00.763Z,19.03
2023-04-16T02:52:02.200Z,18.97
2023-04-16T02:53:04.314Z,18.93
2023-04-16T02:54:05.841Z,18.83
2023-04-16T02:55:08.132Z,20.13
2023-04-16T02:56:09.476Z,19.63
2023-04-16T02:57:10.851Z,19.23
2023-04-16T02:58:12.228Z,19.43
2023-04-16T02:59:13.593Z,18.07
2023-04-16T03:00:15.282Z,19.33
2023-04-16T03:01:18.091Z,17.60
2023-04-16T03:02:19.547Z,18.47
2023-04-16T03:03:21.199Z,18.10
2023-04-16T03:04:22.839Z,18.37
2023-04-16T03:05:24.298Z,18.30
2023-04-16T03:06:26.177Z,18.90
2023-04-16T03:07:27.520Z,18.10
2023-04-16T03:08:28.854Z,18.20
2023-04-16T03:09:30.225Z,18.80
2023-04-16T03:10:31.582Z,19.00
2023-04-16T03:11:32.962Z,19.27
2023-04-16T03:12:34.347Z,19.60
2023-04-16T03:13:36.251Z,19.10
2023-04-16T03:14:37.594Z,18.70
2023-04-16T03:15:39.143Z,18.67
2023-04-16T03:16:40.530Z,18.83
2023-04-16T03:17:41.918Z,19.07
2023-04-16T03:18:44.162Z,19.47
2023-04-16T03:19:45.575Z,19.63
2023-04-16T03:20:51.107Z,19.00
2023-04-16T03:21:52.494Z,19.00
2023-04-16T03:22:53.994Z,18.30
2023-04-16T03:23:56.066Z,19.03
2023-04-16T03:24:57.416Z,18.87
2023-04-16T03:25:58.749Z,18.57
2023-04-16T03:27:02.383Z,18.97
2023-04-16T03:28:03.970Z,19.40
2023-04-16T03:29:05.471Z,19.47
2023-04-16T03:30:07.925Z,19.13
2023-04-16T03:31:10.455Z,18.17
2023-04-16T03:32:12.747Z,17.97
2023-04-16T03:33:14.195Z,17.83
2023-04-16T03:34:15.963Z,18.60
2023-04-16T03:35:17.424Z,17.23
2023-04-16T03:36:19.562Z,17.63
2023-04-16T03:37:21.853Z,19.27
2023-04-16T03:38:26.160Z,18.83
2023-04-16T03:39:30.472Z,18.87
2023-04-16T03:40:31.962Z,19.27
2023-04-16T03:41:34.322Z,19.30
2023-04-16T03:42:37.663Z,18.20
2023-04-16T03:43:40.066Z,19.30
2023-04-16T03:44:41.876Z,18.60
2023-04-16T03:45:44.911Z,18.60
2023-04-16T03:46:47.120Z,19.30
2023-04-16T03:47:52.509Z,19.63
2023-04-16T03:48:56.683Z,18.67
2023-04-16T03:49:58.283Z,19.40
2023-04-16T03:50:59.849Z,18.50
2023-04-16T03:52:01.777Z,19.80
2023-04-16T03:53:03.280Z,18.90
2023-04-16T03:54:04.989Z,18.70
2023-04-16T03:55:07.172Z,19.17
2023-04-16T03:56:08.736Z,19.67
2023-04-16T03:57:10.324Z,19.03
2023-04-16T03:58:12.044Z,18.47
2023-04-16T03:59:13.458Z,19.37
2023-04-16T04:00:14.829Z,18.33
2023-04-16T04:01:16.413Z,18.57
2023-04-16T04:02:17.928Z,19.37
2023-04-16T04:03:19.728Z,18.90
2023-04-16T04:04:23.607Z,18.97
2023-04-16T04:05:25.027Z,22.43
2023-04-16T04:06:27.516Z,21.70
2023-04-16T04:07:28.910Z,20.33
2023-04-16T04:08:30.342Z,20.83
2023-04-16T04:09:31.720Z,22.93
2023-04-16T04:10:33.533Z,21.80
2023-04-16T04:11:35.627Z,19.83
2023-04-16T04:12:37.919Z,20.30
2023-04-16T04:13:39.382Z,19.63
2023-04-16T04:14:40.877Z,18.97
2023-04-16T04:15:42.360Z,19.23
2023-04-16T04:16:43.798Z,19.20
2023-04-16T04:17:45.355Z,19.67
2023-04-16T04:18:47.221Z,18.50
2023-04-16T04:20:00.516Z,19.53
2023-04-16T04:21:09.812Z,19.63
2023-04-16T04:22:11.123Z,19.43
2023-04-16T04:23:13.019Z,19.00
2023-04-16T04:24:14.454Z,18.87
2023-04-16T04:25:16.243Z,19.43
2023-04-16T04:26:17.702Z,19.40
2023-04-16T04:27:19.236Z,19.37
2023-04-16T04:28:21.286Z,19.00
2023-04-16T04:29:22.745Z,20.03
2023-04-16T04:30:24.606Z,19.80
2023-04-16T04:31:26.032Z,19.43
2023-04-16T04:32:27.582Z,20.10
2023-04-16T04:33:29.091Z,19.83
2023-04-16T04:34:30.447Z,19.53
2023-04-16T04:35:33.466Z,18.23
2023-04-16T04:36:35.331Z,19.17
2023-04-16T04:37:36.720Z,18.37
2023-04-16T04:38:46.628Z,18.90
2023-04-16T04:39:48.172Z,19.03
2023-04-16T04:40:49.544Z,19.00
2023-04-16T04:41:53.063Z,18.37
2023-04-16T04:42:54.748Z,19.47
2023-04-16T04:43:57.936Z,18.50
2023-04-16T04:44:59.917Z,18.97
2023-04-16T04:46:02.607Z,18.77
2023-04-16T04:47:05.323Z,19.07
2023-04-16T04:48:06.915Z,17.97
2023-04-16T04:49:09.365Z,18.63
2023-04-16T04:50:11.454Z,19.10
2023-04-16T04:51:13.075Z,18.47
2023-04-16T04:52:16.131Z,18.43
2023-04-16T04:53:17.632Z,18.33
2023-04-16T04:54:19.234Z,18.57
2023-04-16T04:55:20.881Z,18.20
2023-04-16T04:56:22.371Z,17.77
2023-04-16T04:57:23.761Z,17.07
2023-04-16T04:58:28.630Z,17.40
2023-04-16T04:59:30.000Z,17.97
2023-04-16T05:00:32.002Z,18.00
2023-04-16T05:01:33.544Z,17.13
2023-04-16T05:02:35.112Z,17.57
2023-04-16T05:03:36.791Z,17.20
2023-04-16T05:04:38.365Z,17.10
2023-04-16T05:05:40.724Z,17.53
2023-04-16T05:06:42.258Z,17.03
2023-04-16T05:07:44.356Z,17.50
2023-04-16T05:08:45.703Z,17.17
2023-04-16T05:09:47.073Z,17.50
2023-04-16T05:10:48.560Z,16.60
2023-04-16T05:11:49.936Z,17.30
2023-04-16T05:12:51.508Z,17.07
2023-04-16T05:13:52.950Z,16.63
2023-04-16T05:14:54.308Z,17.43
2023-04-16T05:15:55.693Z,16.07
2023-04-16T05:16:57.110Z,17.07
2023-04-16T05:17:58.578Z,16.43
2023-04-16T05:19:00.030Z,17.37
2023-04-16T05:20:01.445Z,16.33
2023-04-16T05:21:02.946Z,15.43
2023-04-16T05:22:04.304Z,16.43
2023-04-16T05:23:05.718Z,15.43
2023-04-16T05:24:07.170Z,15.80
2023-04-16T05:25:08.750Z,15.30
2023-04-16T05:26:10.271Z,15.53
2023-04-16T05:27:11.826Z,15.07
2023-04-16T05:28:13.292Z,15.47
2023-04-16T05:29:14.837Z,15.67
2023-04-16T05:30:16.273Z,15.57
2023-04-16T05:31:17.758Z,15.00
2023-04-16T05:32:19.379Z,15.43
2023-04-16T05:33:20.861Z,14.53
2023-04-16T05:34:22.279Z,15.27
2023-04-16T05:35:23.676Z,15.67
2023-04-16T05:36:25.088Z,15.07
2023-04-16T05:37:26.518Z,15.40
2023-04-16T05:38:27.935Z,14.83
2023-04-16T05:39:29.492Z,15.37
2023-04-16T05:40:31.430Z,14.07
2023-04-16T05:41:33.200Z,14.37
2023-04-16T05:42:34.636Z,14.40
2023-04-16T05:43:36.206Z,14.67
2023-04-16T05:44:37.731Z,14.10
2023-04-16T05:45:41.287Z,13.83
2023-04-16T05:46:42.793Z,13.87
2023-04-16T05:47:44.377Z,14.43
2023-04-16T05:48:46.033Z,14.20
2023-04-16T05:49:47.424Z,13.83
2023-04-16T05:50:49.418Z,14.63
2023-04-16T05:51:53.630Z,15.27
2023-04-16T05:52:55.529Z,15.33
2023-04-16T05:53:57.308Z,17.20
2023-04-16T05:55:02.083Z,15.13
2023-04-16T05:56:04.094Z,12.90
2023-04-16T05:57:05.516Z,14.47
2023-04-16T05:58:07.008Z,13.90
2023-04-16T05:59:08.899Z,13.70
2023-04-16T06:00:10.879Z,12.70
2023-04-16T06:01:14.915Z,12.57
2023-04-16T06:02:16.375Z,12.63
2023-04-16T06:03:18.286Z,13.43
2023-04-16T06:04:19.833Z,13.17
2023-04-16T06:05:21.578Z,12.67
2023-04-16T06:06:22.992Z,12.87
2023-04-16T06:07:24.355Z,12.53
2023-04-16T06:08:25.706Z,12.33
2023-04-16T06:09:27.163Z,13.00
2023-04-16T06:10:28.624Z,13.00
2023-04-16T06:11:30.643Z,12.53
2023-04-16T06:12:32.144Z,12.83
2023-04-16T06:13:33.460Z,12.33
2023-04-16T06:14:34.762Z,11.83
2023-04-16T06:15:36.105Z,12.80
2023-04-16T06:16:37.444Z,12.23
2023-04-16T06:17:38.894Z,12.33
2023-04-16T06:18:40.597Z,12.07
2023-04-16T06:19:42.031Z,12.43
2023-04-16T06:20:43.507Z,12.57
2023-04-16T06:21:45.006Z,11.97
2023-04-16T06:22:46.366Z,11.60
2023-04-16T06:23:47.782Z,11.93
2023-04-16T06:24:49.156Z,11.93
2023-04-16T06:25:50.546Z,12.07
2023-04-16T06:26:51.969Z,11.20
2023-04-16T06:27:53.349Z,12.00
2023-04-16T06:28:54.842Z,11.93
2023-04-16T06:29:56.741Z,12.00
2023-04-16T06:30:58.278Z,10.93
2023-04-16T06:31:59.761Z,12.40
2023-04-16T06:33:01.285Z,12.00
2023-04-16T06:34:02.748Z,11.60
2023-04-16T06:35:04.299Z,12.07
2023-04-16T06:36:05.878Z,11.90
2023-04-16T06:37:10.352Z,12.03
2023-04-16T06:38:12.377Z,12.53
2023-04-16T06:39:13.822Z,12.13
2023-04-16T06:40:15.553Z,12.10
2023-04-16T06:41:16.983Z,11.67
2023-04-16T06:42:18.522Z,12.10
2023-04-16T06:43:20.019Z,12.97
2023-04-16T06:44:21.368Z,12.67
2023-04-16T06:45:22.779Z,11.83
2023-04-16T06:46:24.186Z,11.40
2023-04-16T06:47:25.807Z,12.63
2023-04-16T06:48:27.488Z,12.40
2023-04-16T06:49:28.921Z,13.27
2023-04-16T06:50:30.498Z,11.93
2023-04-16T06:51:31.931Z,11.80
2023-04-16T06:52:33.370Z,12.57
2023-04-16T06:53:34.978Z,12.23
2023-04-16T06:54:36.381Z,11.97
2023-04-16T06:55:37.719Z,12.30
2023-04-16T06:56:39.100Z,12.83
2023-04-16T06:57:40.801Z,12.33
2023-04-16T06:58:42.212Z,12.13
2023-04-16T06:59:43.649Z,12.77
2023-04-16T07:00:45.427Z,12.43
2023-04-16T07:01:46.967Z,12.67
2023-04-16T07:02:48.524Z,13.07
2023-04-16T07:03:50.194Z,13.20
2023-04-16T07:04:52.442Z,12.90
2023-04-16T07:05:53.868Z,13.40
2023-04-16T07:06:55.228Z,13.00
2023-04-16T07:07:57.820Z,13.50
2023-04-16T07:08:59.336Z,13.50
2023-04-16T07:10:00.759Z,13.43
2023-04-16T07:11:02.440Z,14.40
2023-04-16T07:12:04.069Z,13.60
2023-04-16T07:13:05.469Z,13.77
2023-04-16T07:14:07.006Z,13.43
2023-04-16T07:15:08.736Z,14.47
2023-04-16T07:16:10.593Z,14.23
2023-04-16T07:17:12.232Z,13.37
2023-04-16T07:18:14.199Z,13.50
2023-04-16T07:19:15.986Z,13.93
2023-04-16T07:20:18.388Z,13.43
2023-04-16T07:21:19.967Z,14.20
2023-04-16T07:22:21.410Z,13.97
2023-04-16T07:23:22.892Z,13.90
2023-04-16T07:24:24.299Z,14.80
2023-04-16T07:25:26.904Z,14.20
2023-04-16T07:26:28.386Z,14.60
2023-04-16T07:27:29.780Z,15.33
2023-04-16T07:28:31.287Z,14.20
2023-04-16T07:29:32.772Z,14.77
2023-04-16T07:30:34.718Z,14.73
2023-04-16T07:31:36.295Z,14.43
2023-04-16T07:32:38.223Z,14.83
2023-04-16T07:33:42.808Z,15.37
2023-04-16T07:34:44.251Z,15.07
2023-04-16T07:35:45.812Z,15.07
2023-04-16T07:36:47.480Z,15.33
2023-04-16T07:37:49.264Z,15.47
2023-04-16T07:38:50.661Z,15.00
2023-04-16T07:39:53.034Z,14.80
2023-04-16T07:40:57.067Z,14.13
2023-04-16T07:41:58.505Z,15.27
2023-04-16T07:42:59.970Z,15.17
2023-04-16T07:44:01.893Z,15.43
2023-04-16T07:45:04.606Z,16.10
2023-04-16T07:46:06.183Z,15.20
2023-04-16T07:47:17.180Z,14.07
2023-04-16T07:48:22.010Z,13.73
2023-04-16T07:49:23.551Z,14.23
2023-04-16T07:50:25.376Z,15.13
2023-04-16T07:51:27.278Z,15.23
2023-04-16T07:52:28.682Z,15.73
2023-04-16T07:53:30.173Z,14.50
2023-04-16T07:54:31.679Z,15.33
2023-04-16T07:55:33.003Z,15.23
2023-04-16T07:56:34.397Z,14.37
2023-04-16T07:57:35.996Z,15.17
2023-04-16T07:58:38.597Z,15.47
2023-04-16T07:59:56.696Z,14.80
2023-04-16T08:01:14.341Z,14.40
2023-04-16T08:02:16.984Z,14.40
2023-04-16T08:03:18.743Z,14.47
2023-04-16T08:04:25.020Z,15.23
2023-04-16T08:05:27.386Z,14.73
2023-04-16T08:06:28.878Z,14.73
2023-04-16T08:07:30.456Z,15.47
2023-04-16T08:08:31.880Z,14.83
2023-04-16T08:09:33.301Z,14.63
2023-04-16T08:10:34.785Z,15.60
2023-04-16T08:11:36.311Z,14.57
2023-04-16T08:12:37.782Z,15.23
2023-04-16T08:13:39.204Z,14.50
2023-04-16T08:14:41.445Z,14.80
2023-04-16T08:15:43.027Z,14.50
2023-04-16T08:16:44.446Z,15.03
2023-04-16T08:17:45.992Z,14.77
2023-04-16T08:18:47.459Z,14.73
2023-04-16T08:19:48.861Z,14.27
2023-04-16T08:20:50.222Z,14.50
2023-04-16T08:21:51.561Z,13.73
2023-04-16T08:22:55.860Z,14.30
2023-04-16T08:23:57.308Z,14.83
2023-04-16T08:24:58.669Z,13.70
2023-04-16T08:26:01.009Z,14.50
2023-04-16T08:27:11.417Z,14.67
2023-04-16T08:28:19.033Z,15.17
2023-04-16T08:29:20.995Z,14.13
2023-04-16T08:30:23.070Z,14.27
2023-04-16T08:31:24.589Z,13.60
2023-04-16T08:32:26.264Z,15.10
2023-04-16T08:33:27.673Z,14.20
2023-04-16T08:34:29.472Z,14.43
2023-04-16T08:35:30.987Z,14.43
2023-04-16T08:36:32.403Z,13.50
2023-04-16T08:37:33.843Z,14.40
2023-04-16T08:38:35.240Z,14.53
2023-04-16T08:39:36.664Z,14.10
2023-04-16T08:40:39.826Z,14.07
2023-04-16T08:41:42.890Z,14.17
2023-04-16T08:42:55.750Z,14.07
2023-04-16T08:43:58.821Z,13.47
2023-04-16T08:45:08.466Z,13.73
2023-04-16T08:46:11.093Z,12.90
2023-04-16T08:47:12.609Z,13.10
2023-04-16T08:48:15.004Z,13.77
2023-04-16T08:49:20.418Z,14.83
2023-04-16T08:50:24.117Z,15.43
2023-04-16T08:51:27.344Z,13.27
2023-04-16T08:52:31.156Z,13.63
2023-04-16T08:53:36.266Z,60.10
2023-04-16T08:54:37.538Z,54.83
2023-04-16T08:55:39.449Z,100.13
2023-04-16T08:56:43.052Z,38.87
2023-04-16T08:57:57.606Z,14.90
2023-04-16T08:59:01.998Z,46.70
2023-04-16T09:00:03.987Z,15.87
2023-04-16T09:01:06.024Z,98.77
2023-04-16T09:02:07.520Z,17.67
2023-04-16T09:03:10.777Z,14.03
2023-04-16T09:04:13.967Z,13.50
2023-04-16T09:05:17.279Z,12.73
2023-04-16T09:06:19.454Z,13.57
2023-04-16T09:07:21.122Z,12.97
2023-04-16T09:08:22.740Z,12.60
2023-04-16T09:09:25.392Z,13.17
2023-04-16T09:10:27.015Z,13.40
2023-04-16T09:11:28.581Z,12.67
2023-04-16T09:12:30.552Z,13.33
2023-04-16T09:13:31.954Z,13.03
2023-04-16T09:14:33.262Z,13.50
2023-04-16T09:15:35.470Z,12.13
2023-04-16T09:16:37.162Z,12.10
2023-04-16T09:17:38.974Z,12.67
2023-04-16T09:18:40.457Z,12.83
2023-04-16T09:19:44.284Z,12.40
2023-04-16T09:20:46.027Z,12.40
2023-04-16T09:21:49.967Z,12.47
2023-04-16T09:22:51.521Z,11.37
2023-04-16T09:23:53.378Z,12.17
2023-04-16T09:24:54.763Z,11.70
2023-04-16T09:25:57.075Z,12.70
2023-04-16T09:26:59.848Z,12.73
2023-04-16T09:28:01.542Z,12.63
2023-04-16T09:29:03.357Z,12.97
2023-04-16T09:30:23.897Z,13.00
2023-04-16T09:31:25.403Z,12.30
2023-04-16T09:32:28.783Z,13.17
2023-04-16T09:33:30.175Z,13.10
2023-04-16T09:34:32.666Z,12.90
2023-04-16T09:35:44.477Z,11.80
2023-04-16T09:36:48.228Z,12.03
2023-04-16T09:37:56.665Z,12.13
2023-04-16T09:38:59.237Z,11.70
2023-04-16T09:40:01.756Z,11.20
2023-04-16T09:41:07.419Z,10.93
2023-04-16T09:42:09.269Z,11.83
2023-04-16T09:43:11.714Z,12.73
2023-04-16T09:44:13.077Z,12.07
2023-04-16T09:45:14.463Z,10.80
2023-04-16T09:46:16.029Z,11.83
2023-04-16T09:47:17.677Z,11.50
2023-04-16T09:48:29.625Z,13.27
2023-04-16T09:49:33.688Z,11.57
2023-04-16T09:50:35.144Z,12.90
2023-04-16T09:51:37.313Z,12.60
2023-04-16T09:52:38.733Z,12.63
2023-04-16T09:53:40.078Z,13.13
2023-04-16T09:54:48.263Z,12.27
2023-04-16T09:55:49.646Z,12.90
2023-04-16T09:56:51.034Z,12.10
2023-04-16T09:57:58.317Z,12.27
2023-04-16T09:59:00.282Z,12.67
2023-04-16T10:00:03.183Z,12.80
2023-04-16T10:01:07.921Z,13.23
2023-04-16T10:02:15.649Z,13.83
2023-04-16T10:03:18.241Z,13.47
2023-04-16T10:04:20.445Z,16.80
2023-04-16T10:05:21.921Z,17.20
2023-04-16T10:06:25.511Z,17.83
2023-04-16T10:07:33.391Z,16.83
2023-04-16T10:08:34.710Z,19.57
2023-04-16T10:09:39.393Z,15.97
2023-04-16T10:10:41.123Z,14.10
2023-04-16T10:11:42.649Z,15.03
2023-04-16T10:12:44.007Z,15.07
2023-04-16T10:13:45.611Z,14.37
2023-04-16T10:14:48.261Z,16.77
2023-04-16T10:15:51.211Z,21.33
2023-04-16T10:16:53.125Z,15.73
2023-04-16T10:17:55.458Z,23.47
2023-04-16T10:18:56.938Z,14.63
2023-04-16T10:19:58.270Z,15.43
2023-04-16T10:20:59.835Z,14.83
2023-04-16T10:22:02.022Z,14.93
2023-04-16T10:23:03.317Z,15.10
2023-04-16T10:24:04.939Z,16.37
2023-04-16T10:25:07.115Z,15.63
2023-04-16T10:26:08.732Z,21.50
2023-04-16T10:27:10.680Z,17.00
2023-04-16T10:28:13.024Z,14.93
2023-04-16T10:29:14.531Z,17.40
2023-04-16T10:30:16.787Z,16.23
2023-04-16T10:31:18.172Z,16.00
2023-04-16T10:32:21.714Z,16.17
2023-04-16T10:33:24.344Z,14.83
2023-04-16T10:34:26.388Z,14.73
2023-04-16T10:35:27.704Z,15.17
2023-04-16T10:36:29.127Z,14.63
2023-04-16T10:37:31.301Z,14.47
2023-04-16T10:38:32.889Z,14.20
2023-04-16T10:39:37.424Z,15.03
2023-04-16T10:40:38.932Z,14.73
2023-04-16T10:41:40.227Z,14.97
2023-04-16T10:42:41.526Z,15.03
2023-04-16T10:43:43.916Z,14.47
2023-04-16T10:44:45.903Z,14.93
2023-04-16T10:45:47.688Z,18.50
2023-04-16T10:46:52.085Z,15.70
2023-04-16T10:47:55.672Z,15.00
2023-04-16T10:49:00.364Z,14.93
2023-04-16T10:50:01.738Z,14.50
2023-04-16T10:51:05.325Z,15.37
2023-04-16T10:52:13.810Z,15.23
2023-04-16T10:53:20.179Z,15.53
2023-04-16T10:54:24.256Z,14.43
2023-04-16T10:55:26.629Z,14.87
2023-04-16T10:56:28.210Z,14.67
2023-04-16T10:57:29.853Z,16.50
2023-04-16T10:58:31.766Z,15.13
2023-04-16T10:59:34.844Z,18.53
2023-04-16T11:00:49.005Z,25.87
2023-04-16T11:01:52.095Z,19.33
2023-04-16T11:02:54.295Z,16.47
2023-04-16T11:03:55.935Z,14.93
2023-04-16T11:04:57.751Z,15.20
2023-04-16T11:06:12.869Z,15.37
2023-04-16T11:07:18.794Z,15.07
2023-04-16T11:08:20.268Z,16.13
2023-04-16T11:09:42.471Z,15.33
2023-04-16T11:10:44.110Z,15.53
2023-04-16T11:11:46.858Z,16.00
2023-04-16T11:12:48.354Z,15.43
2023-04-16T11:13:50.055Z,15.40
2023-04-16T11:14:58.018Z,14.93
2023-04-16T11:16:01.234Z,15.30
2023-04-16T11:17:03.599Z,16.90
2023-04-16T11:18:06.875Z,15.63
2023-04-16T11:19:08.353Z,16.23
2023-04-16T11:20:18.669Z,15.03
2023-04-16T11:21:22.006Z,15.37
2023-04-16T11:22:23.640Z,16.43
2023-04-16T11:23:24.923Z,16.13
2023-04-16T11:24:29.562Z,15.60
2023-04-16T11:25:31.502Z,16.67
2023-04-16T11:26:32.963Z,15.77
2023-04-16T11:27:34.575Z,16.70
2023-04-16T11:28:35.968Z,16.20
2023-04-16T11:29:37.380Z,16.33
2023-04-16T11:30:39.346Z,16.27
2023-04-16T11:31:40.918Z,16.77
2023-04-16T11:32:43.715Z,17.33
2023-04-16T11:33:45.266Z,16.17
2023-04-16T11:34:46.633Z,16.13
2023-04-16T11:35:57.036Z,15.40
2023-04-16T11:36:58.486Z,16.23
2023-04-16T11:38:00.047Z,16.27
2023-04-16T11:39:03.318Z,15.73
2023-04-16T11:40:06.873Z,16.23
2023-04-16T11:41:08.593Z,16.00
2023-04-16T11:42:10.134Z,15.63
2023-04-16T11:43:16.138Z,17.33
2023-04-16T11:44:25.183Z,16.37
2023-04-16T11:45:26.582Z,15.80
2023-04-16T11:46:43.403Z,17.50
2023-04-16T11:47:51.955Z,16.83
2023-04-16T11:48:54.357Z,16.00
2023-04-16T11:49:55.769Z,16.53
2023-04-16T11:50:57.934Z,16.33
2023-04-16T11:52:00.289Z,16.17
2023-04-16T11:53:03.837Z,16.80
2023-04-16T11:54:05.498Z,17.10
2023-04-16T11:55:07.003Z,17.27
2023-04-16T11:56:08.332Z,17.00
2023-04-16T11:57:09.793Z,16.67
2023-04-16T11:58:11.524Z,17.13
2023-04-16T11:59:14.292Z,16.50
2023-04-16T12:00:16.407Z,17.53
2023-04-16T12:01:20.362Z,17.20
2023-04-16T12:02:34.688Z,17.10
2023-04-16T12:03:46.183Z,17.83
2023-04-16T12:04:47.821Z,18.47
2023-04-16T12:05:49.256Z,17.17
2023-04-16T12:07:09.822Z,18.53
2023-04-16T12:08:11.677Z,17.93
2023-04-16T12:09:22.723Z,18.10
2023-04-16T12:10:24.225Z,17.30
2023-04-16T12:11:39.149Z,18.37
2023-04-16T12:12:40.513Z,19.90
2023-04-16T12:13:41.805Z,18.87
2023-04-16T12:14:49.996Z,18.63
2023-04-16T12:15:52.568Z,20.17
2023-04-16T12:16:53.943Z,20.70
2023-04-16T12:18:10.673Z,19.50
2023-04-16T12:19:12.715Z,21.80
2023-04-16T12:20:15.294Z,19.70
2023-04-16T12:21:16.711Z,21.70
2023-04-16T12:22:18.567Z,339.93
2023-04-16T12:23:22.922Z,291.40
2023-04-16T12:24:24.909Z,169.90
2023-04-16T12:25:26.516Z,64.53
2023-04-16T12:26:27.916Z,64.43
2023-04-16T12:27:51.457Z,46.87
2023-04-16T12:28:54.589Z,139.53
2023-04-16T12:30:07.143Z,33.53
2023-04-16T12:31:10.628Z,20.80
2023-04-16T12:32:21.966Z,20.30
2023-04-16T12:33:23.580Z,19.97
2023-04-16T12:34:30.661Z,19.47
2023-04-16T12:35:47.983Z,18.77
2023-04-16T12:37:02.713Z,18.67
2023-04-16T12:38:04.069Z,19.07
2023-04-16T12:39:05.909Z,19.57
2023-04-16T12:40:07.586Z,17.80
2023-04-16T12:41:08.970Z,18.67
2023-04-16T12:42:11.503Z,18.83
2023-04-16T12:43:13.072Z,19.93
2023-04-16T12:44:18.161Z,19.20
2023-04-16T12:45:19.476Z,19.20
2023-04-16T12:46:21.253Z,19.63
2023-04-16T12:47:22.723Z,18.67
2023-04-16T12:48:24.109Z,18.17
2023-04-16T12:49:25.744Z,18.60
2023-04-16T12:50:30.078Z,18.60
2023-04-16T12:51:32.174Z,19.43
2023-04-16T12:52:34.332Z,20.00
2023-04-16T12:53:35.725Z,19.77
2023-04-16T12:54:37.043Z,19.23
2023-04-16T12:55:38.482Z,18.93
2023-04-16T12:56:39.884Z,19.50
2023-04-16T12:57:42.655Z,19.63
2023-04-16T12:58:44.286Z,19.87
2023-04-16T12:59:47.252Z,19.40
2023-04-16T13:00:48.662Z,19.37
2023-04-16T13:01:50.300Z,19.57
2023-04-16T13:02:52.533Z,19.87
2023-04-16T13:03:54.582Z,18.23
2023-04-16T13:04:56.180Z,19.97
2023-04-16T13:05:57.524Z,19.73
2023-04-16T13:06:59.574Z,18.90
2023-04-16T13:08:01.105Z,20.37
2023-04-16T13:09:02.414Z,21.20
2023-04-16T13:10:05.365Z,20.27
2023-04-16T13:11:06.925Z,20.87
2023-04-16T13:12:08.289Z,20.70
2023-04-16T13:13:09.585Z,21.53
2023-04-16T13:14:10.920Z,22.70
2023-04-16T13:15:12.276Z,21.77
2023-04-16T13:16:13.884Z,21.63
2023-04-16T13:17:15.510Z,20.93
2023-04-16T13:18:16.847Z,21.23
2023-04-16T13:19:19.113Z,20.80
2023-04-16T13:20:22.490Z,20.33
2023-04-16T13:21:25.247Z,19.60
2023-04-16T13:22:26.610Z,18.77
2023-04-16T13:23:28.040Z,20.07
2023-04-16T13:24:30.363Z,19.30
2023-04-16T13:25:31.668Z,19.40
2023-04-16T13:26:32.985Z,18.60
2023-04-16T13:27:34.316Z,19.93